Time;durP1;ratioP1;P1;durP2;ratioP2;P2;SDS_P1;SDS_P2;PMS_P1;PMS_P2;Temp;Humidity;BMP_temperature;BMP_pressure;BME280_temperature;BME280_humidity;BME280_pressure;Samples;Min_cycle;Max_cycle;Signal;HPM_P1;HPM_P2
2022/06/03 00:01:46;;;;;;;4.25;1.27;;;;;;;14.76;92.02;98733.94;5012414;28;20033;-66
2022/06/03 00:05:00;;;;;;;1.83;1.40;;;;;;;15.14;87.24;98784.50;5019756;28;20096;-66
2022/06/03 00:07:36;;;;;;;1.58;1.20;;;;;;;15.00;88.17;98772.97;5018736;28;20033;-68
2022/06/03 00:10:26;;;;;;;1.63;1.00;;;;;;;15.06;87.88;98785.69;5023642;28;20056;-67
2022/06/03 00:13:13;;;;;;;2.15;1.40;;;;;;;15.04;88.48;98774.19;5010413;28;20036;-66
2022/06/03 00:15:59;;;;;;;1.67;1.50;;;;;;;15.09;88.01;98779.78;5018349;28;20025;-66
2022/06/03 00:18:48;;;;;;;2.35;1.27;;;;;;;15.15;88.81;98775.28;5025354;28;20113;-68
2022/06/03 00:21:38;;;;;;;2.00;1.33;;;;;;;15.16;88.63;98770.66;5025977;28;20029;-66
2022/06/03 00:24:33;;;;;;;2.00;1.30;;;;;;;15.26;86.68;98781.81;5026381;28;20121;-68
2022/06/03 00:27:11;;;;;;;1.92;1.35;;;;;;;15.28;85.68;98780.50;5022119;28;20049;-68
2022/06/03 00:29:49;;;;;;;2.85;1.38;;;;;;;15.38;84.98;98773.63;5022067;28;20044;-69
2022/06/03 00:32:43;;;;;;;2.33;1.30;;;;;;;15.33;86.37;98769.75;5024600;28;20139;-68
2022/06/03 00:35:39;;;;;;;6.70;1.50;;;;;;;15.40;84.84;98769.63;5019923;28;20387;-68
2022/06/03 00:38:42;;;;;;;2.00;1.30;;;;;;;15.41;83.64;98773.19;5017018;28;20017;-68
2022/06/03 00:41:15;;;;;;;1.95;1.42;;;;;;;15.41;83.98;98762.28;5020426;28;20033;-68
2022/06/03 00:43:56;;;;;;;3.45;1.40;;;;;;;15.48;82.70;98762.97;5024276;28;20022;-68
2022/06/03 00:46:47;;;;;;;1.30;1.20;;;;;;;15.48;82.28;98758.38;5023983;28;20026;-69
2022/06/03 00:49:27;;;;;;;3.47;1.20;;;;;;;15.44;83.80;98757.19;5021757;28;20029;-67
2022/06/03 00:52:24;;;;;;;2.25;1.35;;;;;;;15.44;84.69;98762.63;5020479;28;20033;-67
2022/06/03 00:55:27;;;;;;;4.63;1.50;;;;;;;15.43;85.73;98760.13;5016764;28;20041;-67
2022/06/03 00:58:32;;;;;;;2.08;1.25;;;;;;;15.42;85.33;98753.84;5019004;28;20125;-69
2022/06/03 01:01:09;;;;;;;4.85;1.40;;;;;;;15.45;83.73;98756.09;5025036;28;20395;-68
2022/06/03 01:04:11;;;;;;;3.83;1.38;;;;;;;15.39;84.04;98764.41;5026916;28;20086;-68
2022/06/03 01:06:49;;;;;;;3.05;1.40;;;;;;;15.45;83.75;98760.72;5018573;28;20494;-70
2022/06/03 01:09:34;;;;;;;2.65;1.20;;;;;;;15.53;82.91;98755.75;5017821;28;20039;-67
2022/06/03 01:12:06;;;;;;;2.60;1.30;;;;;;;15.42;85.65;98762.03;5021840;28;20156;-68
2022/06/03 01:14:41;;;;;;;1.65;1.20;;;;;;;15.33;85.85;98761.56;5022108;28;20029;-67
2022/06/03 01:17:13;;;;;;;2.15;1.30;;;;;;;15.17;87.72;98754.09;5023194;28;20036;-67
2022/06/03 01:19:50;;;;;;;1.80;1.40;;;;;;;15.06;91.92;98768.50;5023644;28;20112;-67
2022/06/03 01:22:45;;;;;;;3.03;1.30;;;;;;;15.09;91.57;98760.69;5016154;28;20560;-68
2022/06/03 01:25:44;;;;;;;3.05;1.45;;;;;;;14.93;91.95;98746.91;5026881;28;20033;-68
2022/06/03 01:28:33;;;;;;;4.15;1.15;;;;;;;15.00;90.21;98762.09;5016929;28;20360;-68
2022/06/03 01:31:22;;;;;;;2.45;1.35;;;;;;;15.06;87.40;98763.03;5014134;28;20046;-68
2022/06/03 01:34:06;;;;;;;1.55;1.23;;;;;;;15.26;83.04;98770.91;5026618;28;20104;-68
2022/06/03 01:36:53;;;;;;;3.22;1.30;;;;;;;15.22;82.86;98762.38;5014090;28;20030;-68
2022/06/03 01:39:24;;;;;;;1.48;1.27;;;;;;;15.25;81.92;98774.72;5021649;28;20022;-68
2022/06/03 01:42:12;;;;;;;3.65;1.30;;;;;;;15.25;82.55;98777.44;5015630;28;20025;-69
2022/06/03 01:44:48;;;;;;;2.13;1.30;;;;;;;15.25;82.72;98774.72;5020534;28;20109;-68
2022/06/03 01:47:32;;;;;;;1.60;1.23;;;;;;;15.33;81.25;98777.91;5029959;28;20029;-68
2022/06/03 01:50:35;;;;;;;1.60;1.20;;;;;;;15.41;80.44;98784.94;5022894;28;20561;-68
2022/06/03 01:53:09;;;;;;;2.25;1.10;;;;;;;15.43;80.15;98782.81;5018142;28;20033;-70
2022/06/03 01:55:45;;;;;;;2.22;1.25;;;;;;;15.38;81.31;98771.78;5014070;28;20025;-68
2022/06/03 01:58:28;;;;;;;1.35;1.17;;;;;;;15.36;81.09;98770.34;5012157;28;20755;-68
2022/06/03 02:01:02;;;;;;;4.95;1.20;;;;;;;15.21;87.62;98759.88;5011837;28;20037;-67
2022/06/03 02:03:45;;;;;;;1.48;1.38;;;;;;;15.01;91.05;98774.66;5018203;28;20040;-68
2022/06/03 02:06:48;;;;;;;1.88;1.45;;;;;;;14.67;97.07;98766.13;5024084;28;20029;-69
2022/06/03 02:09:38;;;;;;;3.55;1.50;;;;;;;14.45;100.00;98756.75;5021619;28;20422;-68
2022/06/03 02:12:28;;;;;;;2.03;1.60;;;;;;;14.31;100.00;98768.91;5019477;28;20025;-69
2022/06/03 02:15:12;;;;;;;3.00;1.35;;;;;;;14.24;100.00;98768.97;5024435;28;20528;-68
2022/06/03 02:18:03;;;;;;;3.85;1.30;;;;;;;14.10;100.00;98762.03;5020225;28;20083;-68
2022/06/03 02:20:59;;;;;;;1.77;1.33;;;;;;;13.93;100.00;98762.59;5021266;28;20041;-68
2022/06/03 02:23:57;;;;;;;2.95;1.63;;;;;;;13.85;100.00;98767.53;5019099;28;20041;-68
2022/06/03 02:26:30;;;;;;;1.80;1.40;;;;;;;13.74;100.00;98769.94;5013785;28;20149;-68
2022/06/03 02:32:22;;;;;;;6.25;1.90;;;;;;;13.53;100.00;98770.34;5019441;28;20399;-69
2022/06/03 02:35:14;;;;;;;3.05;1.27;;;;;;;13.42;100.00;98773.81;5023932;28;20118;-69
2022/06/03 02:38:04;;;;;;;3.45;1.33;;;;;;;13.39;100.00;98766.94;5025925;28;20037;-68
2022/06/03 02:40:48;;;;;;;2.05;1.50;;;;;;;13.33;100.00;98768.63;5016782;28;20478;-69
2022/06/03 02:43:41;;;;;;;2.63;1.60;;;;;;;13.32;100.00;98766.97;5009627;28;20337;-67
2022/06/03 02:46:44;;;;;;;7.03;1.90;;;;;;;13.29;100.00;98766.59;5015164;28;20111;-68
2022/06/03 02:49:21;;;;;;;1.90;1.50;;;;;;;13.25;100.00;98770.75;5018712;28;20021;-68
2022/06/03 02:51:58;;;;;;;2.13;1.30;;;;;;;13.22;100.00;98766.59;5022520;28;20099;-68
2022/06/03 02:54:47;;;;;;;2.15;1.75;;;;;;;13.18;100.00;98767.25;5024476;28;20068;-68
2022/06/03 02:57:50;;;;;;;1.40;1.30;;;;;;;13.12;100.00;98760.84;5025495;28;20029;-70
2022/06/03 03:00:20;;;;;;;1.65;1.30;;;;;;;13.08;100.00;98765.88;5016357;28;20029;-68
2022/06/03 03:03:08;;;;;;;4.47;1.42;;;;;;;13.07;100.00;98764.22;5017521;28;20483;-68
2022/06/03 03:06:24;;;;;;;1.33;1.23;;;;;;;13.08;100.00;98770.50;5023861;28;20061;-68
2022/06/03 03:09:13;;;;;;;2.08;1.60;;;;;;;13.08;100.00;98771.31;4992380;28;20037;-69
2022/06/03 03:12:02;;;;;;;1.70;1.50;;;;;;;13.06;100.00;98764.44;5016967;28;20083;-68
2022/06/03 03:14:52;;;;;;;2.40;1.75;;;;;;;13.03;100.00;98770.31;5018377;28;20026;-67
2022/06/03 03:17:17;;;;;;;;;;;;;;;12.98;100.00;98781.84;5019890;28;20120;-68
2022/06/03 03:20:05;;;;;;;2.13;1.80;;;;;;;12.92;100.00;98783.53;5020667;28;20004;-68
2022/06/03 03:23:08;;;;;;;3.67;1.98;;;;;;;12.83;100.00;98779.41;5024463;28;20767;-68
2022/06/03 03:26:00;;;;;;;2.58;1.70;;;;;;;12.74;100.00;98769.06;5011736;28;20034;-68
2022/06/03 03:28:41;;;;;;;2.45;1.73;;;;;;;12.65;100.00;98768.44;5020872;28;20499;-68
2022/06/03 03:31:37;;;;;;;4.53;1.70;;;;;;;12.63;100.00;98776.84;5011190;28;20032;-69
2022/06/03 03:34:02;;;;;;;2.22;1.60;;;;;;;12.61;100.00;98776.22;5025161;28;20056;-68
2022/06/03 03:36:53;;;;;;;2.20;1.65;;;;;;;12.60;100.00;98776.41;5017000;28;20503;-68
2022/06/03 03:39:40;;;;;;;3.40;1.73;;;;;;;12.59;100.00;98774.75;5017670;28;20017;-68
2022/06/03 03:42:26;;;;;;;3.65;1.70;;;;;;;12.66;100.00;98768.25;5022483;28;20062;-68
2022/06/03 03:45:22;;;;;;;2.40;1.85;;;;;;;12.81;100.00;98762.53;5021284;28;20487;-68
2022/06/03 03:48:12;;;;;;;2.92;1.70;;;;;;;12.91;100.00;98771.00;5021545;28;20033;-69
2022/06/03 03:51:31;;;;;;;3.20;1.27;;;;;;;12.99;100.00;98772.63;5016851;28;20033;-69
2022/06/03 03:54:25;;;;;;;2.65;1.48;;;;;;;13.08;100.00;98774.03;4946217;28;20035;-67
2022/06/03 03:57:20;;;;;;;2.20;1.40;;;;;;;13.17;100.00;98769.16;5012792;28;20033;-68
2022/06/03 04:00:10;;;;;;;2.88;1.55;;;;;;;13.22;100.00;98771.22;5016943;28;20034;-67
2022/06/03 04:02:47;;;;;;;2.08;1.80;;;;;;;13.24;100.00;98766.41;5014676;28;20026;-71
2022/06/03 04:05:31;;;;;;;2.90;1.52;;;;;;;13.04;100.00;98729.34;5022885;28;20033;-68
2022/06/03 04:08:28;;;;;;;1.88;1.60;;;;;;;13.35;100.00;98766.53;5016679;28;20053;-68
2022/06/03 04:11:38;;;;;;;1.80;1.52;;;;;;;13.42;100.00;98761.03;5017299;28;20100;-67
2022/06/03 04:14:28;;;;;;;2.28;1.75;;;;;;;13.37;100.00;98750.00;5013425;28;20037;-68
2022/06/03 04:17:27;;;;;;;4.70;2.00;;;;;;;13.42;100.00;98746.63;5012125;28;20026;-68
2022/06/03 04:20:14;;;;;;;2.13;1.80;;;;;;;13.47;100.00;98744.91;5012959;28;20032;-67
2022/06/03 04:23:03;;;;;;;2.90;2.30;;;;;;;13.43;100.00;98754.53;5015772;28;20038;-69
2022/06/03 04:26:06;;;;;;;5.82;2.28;;;;;;;13.41;100.00;98751.22;5012039;28;20458;-68
2022/06/03 04:28:57;;;;;;;10.32;2.35;;;;;;;13.34;100.00;98737.69;5015464;28;20064;-69
2022/06/03 04:31:56;;;;;;;5.68;2.30;;;;;;;13.42;100.00;98746.63;5011250;28;20101;-69
2022/06/03 04:34:43;;;;;;;3.47;1.88;;;;;;;13.42;100.00;98749.34;5022849;28;20029;-69
2022/06/03 04:37:32;;;;;;;3.33;2.05;;;;;;;13.34;100.00;98756.72;5011263;28;20407;-69
2022/06/03 04:40:51;;;;;;;2.55;2.05;;;;;;;13.36;100.00;98754.63;5018177;28;20542;-69
2022/06/03 04:43:55;;;;;;;3.22;2.15;;;;;;;13.37;100.00;98752.72;5014801;28;20032;-69
2022/06/03 04:46:40;;;;;;;3.47;1.70;;;;;;;13.41;100.00;98745.78;5016893;28;20121;-68
2022/06/03 04:49:40;;;;;;;4.65;1.83;;;;;;;13.51;100.00;98761.59;5022835;28;20806;-69
2022/06/03 04:52:33;;;;;;;6.63;2.20;;;;;;;13.69;100.00;98748.03;5024864;28;20032;-69
2022/06/03 04:55:28;;;;;;;2.75;1.90;;;;;;;13.81;100.00;98751.66;5020560;28;20037;-70
2022/06/03 04:58:44;;;;;;;2.40;1.88;;;;;;;14.09;100.00;98746.75;5021753;28;20411;-67
2022/06/03 05:01:47;;;;;;;2.63;1.73;;;;;;;14.22;100.00;98722.09;4994430;28;20047;-73
2022/06/03 05:04:49;;;;;;;4.35;1.80;;;;;;;14.71;100.00;98741.16;5019739;28;20034;-70
2022/06/03 05:07:49;;;;;;;3.88;2.05;;;;;;;14.94;100.00;98741.22;5027226;28;20084;-71
2022/06/03 05:10:17;;;;;;;;;;;;;;;15.05;100.00;98742.31;5036119;28;20033;-69
2022/06/03 05:13:06;;;;;;;2.63;1.70;;;;;;;15.10;100.00;98737.81;5036579;28;19920;-67
2022/06/03 05:15:37;;;;;;;3.30;1.60;;;;;;;15.46;100.00;98735.97;5032326;28;20025;-69
2022/06/03 05:18:37;;;;;;;4.40;1.70;;;;;;;15.76;100.00;98730.41;5023216;28;20022;-70
2022/06/03 05:21:15;;;;;;;1.63;1.50;;;;;;;16.25;93.57;98727.34;5014097;28;20045;-68
2022/06/03 05:24:17;;;;;;;2.55;1.88;;;;;;;16.48;93.62;98711.94;5028763;28;20133;-70
2022/06/03 05:27:20;;;;;;;5.45;2.15;;;;;;;16.79;91.54;98730.63;4999593;28;20037;-70
2022/06/03 05:30:25;;;;;;;3.35;1.90;;;;;;;16.46;93.65;98735.97;5019926;28;20056;-69
2022/06/03 05:33:05;;;;;;;2.05;1.80;;;;;;;16.54;95.48;98739.13;5019280;28;20034;-70
2022/06/03 05:35:43;;;;;;;3.03;1.90;;;;;;;16.48;94.58;98742.84;5015895;28;20518;-69
2022/06/03 05:38:50;;;;;;;2.08;1.88;;;;;;;16.40;99.43;98737.72;5023513;28;20029;-67
2022/06/03 05:45:02;;;;;;;5.05;1.90;;;;;;;16.64;100.00;98727.56;5005261;28;20091;-70
2022/06/03 05:47:53;;;;;;;3.58;1.60;;;;;;;16.67;100.00;98679.81;5013369;28;20056;-69
2022/06/03 05:50:42;;;;;;;2.25;1.70;;;;;;;17.38;98.21;98722.03;5021283;28;20550;-69
2022/06/03 05:53:54;;;;;;;2.10;1.90;;;;;;;17.62;93.42;98730.88;5018742;28;20026;-68
2022/06/03 05:56:38;;;;;;;3.80;1.63;;;;;;;18.00;90.77;98729.25;5021203;28;20034;-70
2022/06/03 05:59:16;;;;;;;2.78;1.88;;;;;;;17.98;89.89;98736.88;5020258;28;20041;-72
2022/06/03 06:01:55;;;;;;;3.08;2.33;;;;;;;18.04;90.23;98741.34;5017429;28;20407;-72
2022/06/03 06:04:57;;;;;;;3.38;2.22;;;;;;;18.20;86.83;98736.06;5018150;28;20034;-66
2022/06/03 06:08:11;;;;;;;3.78;2.25;;;;;;;18.70;85.13;98740.47;5031485;28;20433;-72
2022/06/03 06:10:36;;;;;;;4.78;2.28;;;;;;;18.65;87.41;98751.38;4976475;28;20129;-67
2022/06/03 06:13:13;;;;;;;3.97;2.22;;;;;;;18.98;84.90;98739.41;5027996;28;20104;-68
2022/06/03 06:16:03;;;;;;;2.38;1.85;;;;;;;19.19;85.28;98740.44;5021049;28;20036;-69
2022/06/03 06:18:47;;;;;;;3.65;2.30;;;;;;;19.26;82.95;98736.38;5020046;28;20018;-67
2022/06/03 06:21:46;;;;;;;2.20;2.00;;;;;;;19.56;84.17;98731.38;5025602;28;20041;-72
2022/06/03 06:24:18;;;;;;;;;;;;;;;19.78;80.71;98725.78;5024510;28;20041;-72
2022/06/03 06:27:10;;;;;;;5.50;2.53;;;;;;;19.97;78.60;98712.47;5021527;28;19921;-71
2022/06/03 06:29:50;;;;;;;6.38;2.60;;;;;;;20.10;75.82;98703.72;5010788;28;20068;-67
2022/06/03 06:32:21;;;;;;;3.83;2.70;;;;;;;20.52;74.23;98708.28;5017885;28;20040;-69
2022/06/03 06:35:24;;;;;;;4.20;2.15;;;;;;;20.89;69.57;98702.59;5020662;28;20947;-74
2022/06/03 06:38:11;;;;;;;3.72;2.20;;;;;;;21.42;70.38;98703.19;5026343;28;20033;-73
2022/06/03 06:40:42;;;;;;;5.13;2.17;;;;;;;21.97;67.74;98706.09;5022962;28;20036;-72
2022/06/03 06:43:30;;;;;;;3.10;2.30;;;;;;;22.53;65.83;98688.50;5014748;28;20079;-72
2022/06/03 06:46:05;;;;;;;5.70;2.33;;;;;;;23.06;60.83;98699.78;5018458;28;20455;-74
2022/06/03 06:48:40;;;;;;;4.03;2.38;;;;;;;23.14;58.14;98703.88;5027805;28;20566;-65
2022/06/03 06:51:23;;;;;;;2.95;2.30;;;;;;;23.93;57.86;98698.16;5024715;28;20056;-65
2022/06/03 06:53:58;;;;;;;3.30;1.77;;;;;;;25.01;54.82;98692.84;5018379;28;20491;-65
2022/06/03 06:56:48;;;;;;;2.15;1.60;;;;;;;26.23;48.22;98702.91;5017242;28;20171;-65
2022/06/03 06:59:23;;;;;;;4.07;2.00;;;;;;;26.20;47.66;98701.56;5021233;28;20025;-69
2022/06/03 07:01:58;;;;;;;2.17;1.92;;;;;;;27.00;45.21;98713.13;5017447;28;20063;-66
2022/06/03 07:04:29;;;;;;;4.18;1.90;;;;;;;28.35;43.49;98689.91;5025991;28;20032;-66
2022/06/03 07:07:05;;;;;;;4.60;1.88;;;;;;;29.07;40.21;98679.38;5019090;28;20025;-66
2022/06/03 07:09:40;;;;;;;4.82;1.75;;;;;;;29.58;39.45;98686.84;5022249;28;20022;-65
2022/06/03 07:12:11;;;;;;;3.80;1.92;;;;;;;29.79;39.68;98691.69;5015744;28;20133;-63
2022/06/03 07:15:01;;;;;;;4.30;1.60;;;;;;;29.85;39.41;98699.56;5016788;28;20079;-68
2022/06/03 07:21:08;;;;;;;5.32;2.00;;;;;;;29.99;38.41;98690.16;4990612;28;20048;-66
2022/06/03 07:23:47;;;;;;;6.40;1.98;;;;;;;31.29;36.03;98691.28;5019002;28;20638;-67
2022/06/03 07:26:18;;;;;;;;;;;;;;;31.93;34.13;98688.00;5016751;28;20085;-67
2022/06/03 07:28:56;;;;;;;4.38;1.98;;;;;;;33.90;31.46;98670.66;5018169;28;19964;-68
2022/06/03 07:31:40;;;;;;;5.38;2.30;;;;;;;33.60;31.31;98655.06;5022794;28;20021;-70
2022/06/03 07:34:22;;;;;;;4.50;1.80;;;;;;;34.56;30.05;98664.28;5017991;28;20056;-72
2022/06/03 07:37:33;;;;;;;6.55;1.73;;;;;;;34.91;31.25;98666.25;5022316;28;20021;-71
2022/06/03 07:40:04;;;;;;;3.10;1.50;;;;;;;35.52;29.00;98664.69;5021591;28;20384;-76
2022/06/03 07:42:47;;;;;;;1.58;1.40;;;;;;;36.20;29.14;98671.53;5013567;28;20026;-70
2022/06/03 07:45:26;;;;;;;3.05;1.80;;;;;;;36.56;28.45;98646.75;5021847;28;20088;-69
2022/06/03 07:47:53;;;;;;;4.50;1.65;;;;;;;36.52;27.58;98655.09;5024875;28;20439;-66
2022/06/03 07:50:21;;;;;;;2.58;2.00;;;;;;;33.27;31.88;98655.34;5019998;28;20498;-66
2022/06/03 07:53:05;;;;;;;3.83;2.10;;;;;;;35.43;29.98;98650.84;5020483;28;20029;-68
2022/06/03 07:55:31;;;;;;;2.08;1.30;;;;;;;36.10;28.69;98644.00;5026752;28;20029;-70
2022/06/03 07:58:06;;;;;;;3.63;1.65;;;;;;;36.45;28.77;98648.59;5026015;28;20087;-70
2022/06/03 08:00:37;;;;;;;3.08;1.70;;;;;;;36.70;28.09;98624.38;5015806;28;20090;-70
2022/06/03 08:03:13;;;;;;;4.78;1.48;;;;;;;36.96;27.79;98642.44;5016995;28;20021;-68
2022/06/03 08:05:38;;;;;;;3.10;1.60;;;;;;;37.13;28.20;98633.44;5019081;28;20124;-69
2022/06/03 08:11:00;;;;;;;6.10;1.80;;;;;;;37.76;26.69;98609.09;5015006;28;20036;-69
2022/06/03 08:13:46;;;;;;;4.00;1.42;;;;;;;38.10;25.85;98606.16;5011669;28;20658;-70
2022/06/03 08:16:14;;;;;;;3.08;1.50;;;;;;;37.41;26.75;98598.22;5014821;28;20021;-67
2022/06/03 08:18:43;;;;;;;2.13;1.20;;;;;;;37.82;26.58;98601.06;5016601;28;20157;-67
2022/06/03 08:21:31;;;;;;;5.45;1.58;;;;;;;37.34;27.04;98593.34;5016917;28;20449;-71
2022/06/03 08:23:58;;;;;;;2.55;1.58;;;;;;;37.59;27.07;98596.41;5013422;28;20029;-68
2022/06/03 08:26:27;;;;;;;4.30;1.70;;;;;;;37.58;28.08;98596.81;5017860;28;20041;-67
2022/06/03 08:28:57;;;;;;;;;;;;;;;37.63;27.11;98585.97;5016738;28;20477;-68
2022/06/03 08:31:24;;;;;;;2.42;1.45;;;;;;;37.66;27.66;98570.28;5018055;28;20768;-70
2022/06/03 08:33:53;;;;;;;3.35;1.50;;;;;;;38.27;27.18;98587.69;5012836;28;20049;-71
2022/06/03 08:36:24;;;;;;;1.80;1.45;;;;;;;37.85;27.42;98578.47;5017373;28;20030;-71
2022/06/03 08:38:57;;;;;;;2.65;1.52;;;;;;;38.33;27.17;98583.25;5014881;28;20159;-72
2022/06/03 08:41:40;;;;;;;4.38;1.40;;;;;;;38.09;26.95;98568.59;5017457;28;20034;-71
2022/06/03 08:44:33;;;;;;;3.17;1.70;;;;;;;37.78;27.25;98583.25;5011737;28;20124;-72
2022/06/03 08:47:17;;;;;;;3.92;1.65;;;;;;;37.59;27.77;98585.13;5023167;28;20505;-68
2022/06/03 08:49:45;;;;;;;3.80;1.45;;;;;;;37.79;27.74;98574.41;5021084;28;20044;-67
2022/06/03 08:52:12;;;;;;;4.18;1.60;;;;;;;38.34;26.20;98576.44;5019267;28;20053;-63
2022/06/03 08:54:44;;;;;;;2.72;1.58;;;;;;;38.73;26.47;98582.28;5016768;28;20388;-68
2022/06/03 08:57:36;;;;;;;4.15;1.65;;;;;;;38.29;27.21;98582.44;5014098;28;21563;-68
2022/06/03 09:00:09;;;;;;;3.15;1.60;;;;;;;36.76;28.57;98582.56;5015834;28;20041;-68
2022/06/03 09:02:58;;;;;;;3.25;1.50;;;;;;;35.59;30.52;98574.78;5020341;28;20103;-70
2022/06/03 09:05:35;;;;;;;1.63;1.35;;;;;;;36.87;29.56;98563.78;5018992;28;20036;-66
2022/06/03 09:08:11;;;;;;;1.85;1.13;;;;;;;39.03;26.43;98571.91;5019756;28;20039;-67
2022/06/03 09:10:43;;;;;;;2.78;1.42;;;;;;;38.78;26.23;98572.63;5017207;28;20049;-66
2022/06/03 09:13:43;;;;;;;5.82;1.45;;;;;;;39.60;25.66;98572.03;5021181;28;21146;-64
2022/06/03 09:16:11;;;;;;;3.60;1.40;;;;;;;39.70;25.69;98545.75;5016556;28;20033;-66
2022/06/03 09:18:45;;;;;;;2.10;1.30;;;;;;;39.81;25.32;98546.56;5014663;28;20535;-71
2022/06/03 09:21:13;;;;;;;2.20;1.20;;;;;;;40.16;25.04;98552.56;5018139;28;20075;-69
2022/06/03 09:23:42;;;;;;;4.30;1.70;;;;;;;40.95;24.66;98536.09;5022464;28;20048;-65
2022/06/03 09:26:17;;;;;;;1.60;1.00;;;;;;;42.05;23.43;98533.66;5020531;28;20112;-68
2022/06/03 09:28:43;;;;;;;1.85;1.30;;;;;;;41.24;23.96;98530.25;5023129;28;20076;-65
2022/06/03 09:31:12;;;;;;;1.88;1.10;;;;;;;40.13;24.71;98536.38;5026828;28;20116;-67
2022/06/03 09:33:39;;;;;;;2.13;1.23;;;;;;;39.23;25.66;98525.88;5009965;28;20551;-67
2022/06/03 09:36:13;;;;;;;1.10;1.00;;;;;;;39.53;25.32;98527.53;5019968;28;20128;-64
2022/06/03 09:38:51;;;;;;;1.55;0.98;;;;;;;39.00;25.68;98517.75;5016176;28;20038;-66
2022/06/03 09:41:21;;;;;;;1.73;1.20;;;;;;;38.85;26.25;98507.56;5020153;28;20025;-65
2022/06/03 09:43:50;;;;;;;1.95;1.05;;;;;;;36.68;29.23;98516.88;5017078;28;20040;-68
2022/06/03 09:46:16;;;;;;;1.45;1.00;;;;;;;36.24;30.01;98506.22;5022165;28;20483;-65
2022/06/03 09:48:43;;;;;;;3.13;1.50;;;;;;;36.16;30.40;98510.13;5018022;28;20109;-64
2022/06/03 09:51:19;;;;;;;3.42;1.75;;;;;;;36.72;30.95;98489.50;5019713;28;22881;-66
2022/06/03 09:53:45;;;;;;;1.60;1.30;;;;;;;37.64;29.92;98499.28;5016490;28;20044;-66
2022/06/03 09:56:32;;;;;;;3.67;1.20;;;;;;;38.70;28.63;98508.75;5018187;28;20072;-66
2022/06/03 09:59:01;;;;;;;1.83;1.02;;;;;;;39.67;27.41;98513.38;5016760;28;20037;-66
2022/06/03 10:01:27;;;;;;;1.30;1.13;;;;;;;40.25;26.83;98514.13;5017228;28;20846;-66
2022/06/03 10:03:57;;;;;;;3.28;1.30;;;;;;;40.43;26.52;98514.06;5020312;28;20112;-66
2022/06/03 10:14:34;;;;;;;2.58;1.20;;;;;;;41.28;25.13;98503.47;5018980;28;20056;-71
2022/06/03 10:17:00;;;;;;;4.03;1.52;;;;;;;41.12;25.23;98492.63;5017806;28;20475;-71
2022/06/03 10:19:26;;;;;;;2.20;1.27;;;;;;;40.48;26.14;98501.44;5018994;28;20731;-71
2022/06/03 10:21:54;;;;;;;2.10;1.40;;;;;;;39.34;27.58;98508.94;5019787;28;20478;-71
2022/06/03 10:24:22;;;;;;;5.13;1.58;;;;;;;40.45;26.51;98507.94;5027907;28;20021;-71
2022/06/03 10:26:52;;;;;;;2.95;1.20;;;;;;;41.26;25.74;98502.25;5015216;28;20396;-71
2022/06/03 10:29:23;;;;;;;2.30;1.40;;;;;;;39.54;26.47;98500.00;5017439;28;20025;-74
2022/06/03 10:31:54;;;;;;;2.33;1.38;;;;;;;39.21;27.02;98500.00;5015581;28;20499;-69
2022/06/03 10:34:25;;;;;;;1.27;1.10;;;;;;;38.27;28.30;98491.59;5018016;28;20103;-69
2022/06/03 10:36:52;;;;;;;1.98;1.30;;;;;;;36.61;30.53;98505.50;5019673;28;20021;-69
2022/06/03 10:39:21;;;;;;;4.97;1.48;;;;;;;35.09;32.07;98515.63;5023324;28;20037;-69
2022/06/03 10:41:53;;;;;;;;;;;;;;;34.30;33.46;98520.81;5020239;28;20518;-73
2022/06/03 10:44:22;;;;;;;1.95;1.58;;;;;;;34.13;34.34;98482.75;5016860;28;19975;-69
2022/06/03 10:47:02;;;;;;;6.30;1.70;;;;;;;34.20;34.78;98502.56;5018517;28;20030;-73
2022/06/03 10:49:29;;;;;;;2.00;1.50;;;;;;;34.21;34.82;98496.56;5017397;28;20030;-77
2022/06/03 11:03:29;;;;;;;4.30;1.52;;;;;;;33.86;35.66;98496.56;5011934;28;20117;-69
2022/06/03 11:05:55;;;;;;;4.38;1.50;;;;;;;35.14;33.59;98502.47;5027147;28;20035;-68
2022/06/03 11:08:21;;;;;;;3.33;1.70;;;;;;;34.12;35.17;98503.59;5024208;28;20055;-67
2022/06/03 11:10:53;;;;;;;2.38;1.65;;;;;;;33.21;36.91;98491.38;5016780;28;20037;-66
2022/06/03 11:13:32;;;;;;;2.20;1.50;;;;;;;32.85;37.56;98495.19;5020904;28;20116;-69
2022/06/03 11:16:13;;;;;;;3.80;1.80;;;;;;;31.75;39.67;98507.50;5020995;28;20626;-68
2022/06/03 11:18:39;;;;;;;1.90;1.50;;;;;;;30.99;40.50;98493.00;5022528;28;20052;-65
2022/06/03 11:21:29;;;;;;;4.07;1.70;;;;;;;30.69;42.21;98518.28;5026894;28;22662;-66
2022/06/03 11:23:57;;;;;;;6.13;2.28;;;;;;;29.99;44.02;98504.06;5019307;28;20045;-71
2022/06/03 11:26:33;;;;;;;4.38;1.90;;;;;;;29.51;47.35;98501.72;5023717;28;20032;-69
2022/06/03 11:29:04;;;;;;;3.20;1.70;;;;;;;29.35;47.03;98520.97;5018170;28;20022;-64
2022/06/03 11:31:42;;;;;;;4.10;1.90;;;;;;;29.08;47.76;98525.00;5024166;28;20510;-67
2022/06/03 11:34:23;;;;;;;4.72;1.90;;;;;;;28.71;48.88;98528.16;5021605;28;20402;-63
2022/06/03 11:37:01;;;;;;;5.82;2.20;;;;;;;28.30;50.21;98534.25;5023787;28;20045;-66
2022/06/03 11:39:33;;;;;;;3.47;1.90;;;;;;;28.10;51.21;98544.84;5019815;28;20029;-63
2022/06/03 11:42:07;;;;;;;4.07;2.20;;;;;;;27.66;54.21;98527.22;5011078;28;20117;-63
2022/06/03 11:44:54;;;;;;;4.63;2.05;;;;;;;27.69;54.86;98529.38;5021000;28;20113;-63
2022/06/03 11:47:23;;;;;;;3.83;2.17;;;;;;;27.58;56.58;98530.81;5009063;28;20026;-62
2022/06/03 11:49:50;;;;;;;4.63;2.00;;;;;;;27.51;55.93;98520.19;5019627;28;20029;-64
2022/06/03 11:52:16;;;;;;;6.30;2.20;;;;;;;27.27;58.49;98501.16;5017100;28;20739;-64
2022/06/03 11:54:42;;;;;;;7.00;2.30;;;;;;;27.27;60.06;98516.97;5015666;28;20145;-64
2022/06/03 11:57:08;;;;;;;4.43;2.00;;;;;;;27.21;59.10;98501.59;5015678;28;20127;-64
2022/06/03 11:59:50;;;;;;;7.45;2.13;;;;;;;27.26;59.02;98507.81;5027534;28;20029;-64
2022/06/03 12:02:29;;;;;;;3.08;2.08;;;;;;;27.12;61.73;98507.09;5015605;28;20157;-64
2022/06/03 12:05:16;;;;;;;3.28;2.53;;;;;;;27.01;62.67;98509.31;5023329;28;20032;-64
2022/06/03 12:07:59;;;;;;;4.22;2.50;;;;;;;26.88;63.47;98516.59;5020814;28;20040;-64
2022/06/03 12:10:58;;;;;;;5.45;2.22;;;;;;;26.74;62.47;98520.59;5018040;28;20036;-64
2022/06/03 12:13:30;;;;;;;5.03;2.60;;;;;;;26.46;63.27;98515.13;5009986;28;20044;-64
2022/06/03 12:15:59;;;;;;;3.95;2.38;;;;;;;26.44;64.65;98512.69;5021010;28;20029;-64
2022/06/03 12:18:39;;;;;;;4.95;2.35;;;;;;;26.54;63.76;98483.91;5023254;28;20112;-65
2022/06/03 12:21:27;;;;;;;7.78;2.28;;;;;;;26.81;63.74;98457.13;5016334;28;20122;-64
2022/06/03 12:23:54;;;;;;;5.53;2.13;;;;;;;27.54;64.04;98454.81;5015143;28;20127;-65
2022/06/03 12:26:28;;;;;;;5.60;2.55;;;;;;;28.21;70.37;98441.59;5014378;28;20026;-70
2022/06/03 12:28:59;;;;;;;3.95;2.22;;;;;;;29.48;64.08;98439.91;5033624;28;20030;-71
2022/06/03 12:31:40;;;;;;;4.18;2.15;;;;;;;31.33;57.97;98437.84;5015501;28;20064;-70
2022/06/03 12:34:06;;;;;;;4.68;1.90;;;;;;;32.31;46.65;98434.88;5019087;28;20048;-70
2022/06/03 12:36:53;;;;;;;4.30;2.00;;;;;;;32.38;48.23;98440.66;5028049;28;20029;-70
2022/06/03 12:39:18;;;;;;;9.55;3.00;;;;;;;32.23;44.30;98444.25;5018136;28;20033;-70
2022/06/03 12:41:43;;;;;;;2.77;1.80;;;;;;;32.06;45.29;98434.97;5025959;28;20735;-70
2022/06/03 12:44:34;;;;;;;5.27;1.97;;;;;;;32.24;46.30;98440.25;5024014;28;20030;-70
2022/06/03 12:47:17;;;;;;;4.40;2.10;;;;;;;32.07;45.30;98452.59;5018624;28;20040;-69
2022/06/03 12:49:43;;;;;;;3.30;1.70;;;;;;;31.97;45.61;98459.47;5028859;28;20037;-69
2022/06/03 12:52:12;;;;;;;2.93;1.63;;;;;;;31.53;45.47;98470.47;5020528;28;20077;-70
2022/06/03 12:54:47;;;;;;;3.45;2.00;;;;;;;31.18;45.22;98479.31;5017644;28;20315;-70
2022/06/03 12:57:29;;;;;;;3.15;2.10;;;;;;;31.00;46.68;98466.72;5024720;28;20487;-70
2022/06/03 13:00:00;;;;;;;2.28;1.80;;;;;;;30.94;45.96;98454.94;5022518;28;20465;-69
2022/06/03 13:02:29;;;;;;;3.00;1.90;;;;;;;30.74;47.16;98439.84;5027356;28;20065;-69
2022/06/03 13:04:55;;;;;;;4.45;1.77;;;;;;;30.85;47.35;98462.59;5024682;28;20033;-69
2022/06/03 13:07:26;;;;;;;2.90;2.00;;;;;;;30.75;47.68;98463.00;5016756;28;20030;-69
2022/06/03 13:09:53;;;;;;;3.10;1.88;;;;;;;30.78;45.96;98463.16;5022933;28;20033;-70
2022/06/03 13:12:27;;;;;;;1.67;1.58;;;;;;;30.53;45.23;98470.63;5027774;28;20044;-69